sensor_id;sensor_type;location;lat;lon;timestamp;P1;durP1;ratioP1;P2;durP2;ratioP2
1378;SDS011;683;48.738;9.226;2022-11-15T00:01:56;5.93;;;5.37;;
1378;SDS011;683;48.738;9.226;2022-11-15T00:04:42;8.80;;;6.07;;
1378;SDS011;683;48.738;9.226;2022-11-15T00:07:29;6.77;;;6.07;;
1378;SDS011;683;48.738;9.226;2022-11-15T00:10:17;7.37;;;5.20;;
1378;SDS011;683;48.738;9.226;2022-11-15T00:13:06;6.70;;;6.00;;
1378;SDS011;683;48.738;9.226;2022-11-15T00:15:53;6.73;;;5.13;;
1378;SDS011;683;48.738;9.226;2022-11-15T00:18:43;6.33;;;4.30;;
1378;SDS011;683;48.738;9.226;2022-11-15T00:21:29;5.30;;;4.73;;
1378;SDS011;683;48.738;9.226;2022-11-15T00:24:16;6.37;;;5.77;;
1378;SDS011;683;48.738;9.226;2022-11-15T00:27:04;4.50;;;4.10;;
1378;SDS011;683;48.738;9.226;2022-11-15T00:29:50;9.60;;;5.50;;
1378;SDS011;683;48.738;9.226;2022-11-15T00:32:37;4.83;;;4.33;;
1378;SDS011;683;48.738;9.226;2022-11-15T00:35:23;5.90;;;5.30;;
1378;SDS011;683;48.738;9.226;2022-11-15T00:38:10;7.30;;;4.97;;
1378;SDS011;683;48.738;9.226;2022-11-15T00:40:56;7.77;;;4.43;;
1378;SDS011;683;48.738;9.226;2022-11-15T00:43:44;9.07;;;4.30;;
1378;SDS011;683;48.738;9.226;2022-11-15T00:46:30;6.40;;;4.03;;
1378;SDS011;683;48.738;9.226;2022-11-15T00:49:16;5.60;;;4.03;;
1378;SDS011;683;48.738;9.226;2022-11-15T00:52:03;8.50;;;4.00;;
1378;SDS011;683;48.738;9.226;2022-11-15T00:54:49;4.10;;;3.43;;
1378;SDS011;683;48.738;9.226;2022-11-15T00:57:36;8.30;;;5.40;;
1378;SDS011;683;48.738;9.226;2022-11-15T01:00:24;3.60;;;3.30;;
1378;SDS011;683;48.738;9.226;2022-11-15T01:03:10;3.37;;;3.07;;
1378;SDS011;683;48.738;9.226;2022-11-15T01:05:58;6.20;;;3.73;;
1378;SDS011;683;48.738;9.226;2022-11-15T01:08:44;6.50;;;4.30;;
1378;SDS011;683;48.738;9.226;2022-11-15T01:11:31;5.10;;;2.53;;
1378;SDS011;683;48.738;9.226;2022-11-15T01:14:17;4.03;;;3.73;;
1378;SDS011;683;48.738;9.226;2022-11-15T01:17:05;3.40;;;3.03;;
1378;SDS011;683;48.738;9.226;2022-11-15T01:19:52;3.30;;;3.00;;
1378;SDS011;683;48.738;9.226;2022-11-15T01:22:38;3.07;;;2.60;;
1378;SDS011;683;48.738;9.226;2022-11-15T01:25:24;5.30;;;3.50;;
1378;SDS011;683;48.738;9.226;2022-11-15T01:28:11;4.10;;;3.70;;
1378;SDS011;683;48.738;9.226;2022-11-15T01:30:58;5.80;;;4.53;;
1378;SDS011;683;48.738;9.226;2022-11-15T01:33:46;4.10;;;3.70;;
1378;SDS011;683;48.738;9.226;2022-11-15T01:36:33;6.53;;;4.43;;
1378;SDS011;683;48.738;9.226;2022-11-15T01:39:20;6.43;;;4.63;;
1378;SDS011;683;48.738;9.226;2022-11-15T01:42:08;4.47;;;4.07;;
1378;SDS011;683;48.738;9.226;2022-11-15T01:44:57;4.10;;;3.70;;
1378;SDS011;683;48.738;9.226;2022-11-15T01:47:44;6.37;;;5.67;;
1378;SDS011;683;48.738;9.226;2022-11-15T01:50:37;4.13;;;3.83;;
1378;SDS011;683;48.738;9.226;2022-11-15T01:53:24;7.33;;;5.90;;
1378;SDS011;683;48.738;9.226;2022-11-15T01:56:13;5.90;;;5.40;;
1378;SDS011;683;48.738;9.226;2022-11-15T01:59:03;6.30;;;5.23;;
1378;SDS011;683;48.738;9.226;2022-11-15T02:01:52;10.80;;;5.87;;
1378;SDS011;683;48.738;9.226;2022-11-15T02:04:40;4.60;;;4.20;;
1378;SDS011;683;48.738;9.226;2022-11-15T02:07:29;6.50;;;5.53;;
1378;SDS011;683;48.738;9.226;2022-11-15T02:10:18;7.27;;;4.80;;
1378;SDS011;683;48.738;9.226;2022-11-15T02:13:05;5.67;;;5.00;;
1378;SDS011;683;48.738;9.226;2022-11-15T02:15:55;7.87;;;6.43;;
1378;SDS011;683;48.738;9.226;2022-11-15T02:18:51;8.77;;;5.80;;
1378;SDS011;683;48.738;9.226;2022-11-15T02:21:41;7.93;;;5.63;;
1378;SDS011;683;48.738;9.226;2022-11-15T02:24:38;5.67;;;5.17;;
1378;SDS011;683;48.738;9.226;2022-11-15T02:27:49;8.17;;;5.53;;
1378;SDS011;683;48.738;9.226;2022-11-15T02:31:06;6.10;;;4.60;;
1378;SDS011;683;48.738;9.226;2022-11-15T02:33:59;6.97;;;5.50;;
1378;SDS011;683;48.738;9.226;2022-11-15T02:36:56;5.90;;;5.40;;
1378;SDS011;683;48.738;9.226;2022-11-15T02:39:49;5.67;;;5.17;;
1378;SDS011;683;48.738;9.226;2022-11-15T02:42:39;6.17;;;5.57;;
1378;SDS011;683;48.738;9.226;2022-11-15T02:46:01;7.90;;;4.80;;
1378;SDS011;683;48.738;9.226;2022-11-15T02:48:52;6.83;;;5.37;;
1378;SDS011;683;48.738;9.226;2022-11-15T02:51:38;8.70;;;5.27;;
1378;SDS011;683;48.738;9.226;2022-11-15T02:54:28;5.27;;;4.73;;
1378;SDS011;683;48.738;9.226;2022-11-15T02:57:16;4.80;;;4.30;;
1378;SDS011;683;48.738;9.226;2022-11-15T03:00:09;5.60;;;4.20;;
1378;SDS011;683;48.738;9.226;2022-11-15T03:03:08;6.20;;;4.53;;
1378;SDS011;683;48.738;9.226;2022-11-15T03:06:13;4.67;;;4.27;;
1378;SDS011;683;48.738;9.226;2022-11-15T03:09:07;5.60;;;3.70;;
1378;SDS011;683;48.738;9.226;2022-11-15T03:11:59;4.20;;;3.80;;
1378;SDS011;683;48.738;9.226;2022-11-15T03:14:54;5.13;;;4.03;;
1378;SDS011;683;48.738;9.226;2022-11-15T03:17:46;7.10;;;4.63;;
1378;SDS011;683;48.738;9.226;2022-11-15T03:20:37;5.00;;;4.50;;
1378;SDS011;683;48.738;9.226;2022-11-15T03:23:25;3.47;;;3.17;;
1378;SDS011;683;48.738;9.226;2022-11-15T03:26:14;4.77;;;4.07;;
1378;SDS011;683;48.738;9.226;2022-11-15T03:29:05;8.10;;;4.60;;
1378;SDS011;683;48.738;9.226;2022-11-15T03:31:55;9.17;;;4.43;;
1378;SDS011;683;48.738;9.226;2022-11-15T03:34:46;4.70;;;3.53;;
1378;SDS011;683;48.738;9.226;2022-11-15T03:37:41;4.97;;;4.53;;
1378;SDS011;683;48.738;9.226;2022-11-15T03:40:35;14.87;;;5.50;;
1378;SDS011;683;48.738;9.226;2022-11-15T03:43:26;4.93;;;4.53;;
1378;SDS011;683;48.738;9.226;2022-11-15T03:46:19;5.60;;;4.73;;
1378;SDS011;683;48.738;9.226;2022-11-15T03:49:12;4.53;;;4.13;;
1378;SDS011;683;48.738;9.226;2022-11-15T03:52:03;5.00;;;3.83;;
1378;SDS011;683;48.738;9.226;2022-11-15T03:54:50;5.10;;;4.70;;
1378;SDS011;683;48.738;9.226;2022-11-15T03:57:39;9.60;;;4.90;;
1378;SDS011;683;48.738;9.226;2022-11-15T04:00:26;6.70;;;4.87;;
1378;SDS011;683;48.738;9.226;2022-11-15T04:03:13;4.93;;;4.43;;
1378;SDS011;683;48.738;9.226;2022-11-15T04:05:59;7.13;;;5.00;;
1378;SDS011;683;48.738;9.226;2022-11-15T04:08:45;6.17;;;5.53;;
1378;SDS011;683;48.738;9.226;2022-11-15T04:11:32;6.80;;;5.10;;
1378;SDS011;683;48.738;9.226;2022-11-15T04:14:20;5.13;;;4.47;;
1378;SDS011;683;48.738;9.226;2022-11-15T04:17:06;6.80;;;6.20;;
1378;SDS011;683;48.738;9.226;2022-11-15T04:19:52;7.57;;;5.00;;
1378;SDS011;683;48.738;9.226;2022-11-15T04:22:57;5.57;;;5.07;;
1378;SDS011;683;48.738;9.226;2022-11-15T04:26:02;6.10;;;5.60;;
1378;SDS011;683;48.738;9.226;2022-11-15T04:28:51;5.23;;;4.73;;
1378;SDS011;683;48.738;9.226;2022-11-15T04:31:57;5.47;;;4.77;;
1378;SDS011;683;48.738;9.226;2022-11-15T04:34:43;4.90;;;4.10;;
1378;SDS011;683;48.738;9.226;2022-11-15T04:37:29;6.60;;;5.90;;
1378;SDS011;683;48.738;9.226;2022-11-15T04:40:16;6.00;;;5.40;;
1378;SDS011;683;48.738;9.226;2022-11-15T04:43:02;8.90;;;5.50;;
1378;SDS011;683;48.738;9.226;2022-11-15T04:45:49;5.07;;;4.57;;
1378;SDS011;683;48.738;9.226;2022-11-15T04:48:37;6.10;;;5.50;;
1378;SDS011;683;48.738;9.226;2022-11-15T04:51:23;8.10;;;5.10;;
1378;SDS011;683;48.738;9.226;2022-11-15T04:54:10;6.00;;;5.40;;
1378;SDS011;683;48.738;9.226;2022-11-15T04:56:56;5.20;;;4.77;;
1378;SDS011;683;48.738;9.226;2022-11-15T04:59:42;5.30;;;4.80;;
1378;SDS011;683;48.738;9.226;2022-11-15T05:02:30;6.20;;;5.20;;
1378;SDS011;683;48.738;9.226;2022-11-15T05:05:32;6.30;;;5.70;;
1378;SDS011;683;48.738;9.226;2022-11-15T05:08:18;7.00;;;5.53;;
1378;SDS011;683;48.738;9.226;2022-11-15T05:11:04;6.80;;;6.13;;
1378;SDS011;683;48.738;9.226;2022-11-15T05:13:51;5.90;;;5.30;;
1378;SDS011;683;48.738;9.226;2022-11-15T05:16:37;6.93;;;6.33;;
1378;SDS011;683;48.738;9.226;2022-11-15T05:19:24;6.80;;;5.30;;
1378;SDS011;683;48.738;9.226;2022-11-15T05:22:12;5.63;;;5.13;;
1378;SDS011;683;48.738;9.226;2022-11-15T05:24:58;5.47;;;4.97;;
1378;SDS011;683;48.738;9.226;2022-11-15T05:27:44;4.87;;;4.37;;
1378;SDS011;683;48.738;9.226;2022-11-15T05:30:31;4.13;;;3.83;;
1378;SDS011;683;48.738;9.226;2022-11-15T05:33:17;5.03;;;4.53;;
1378;SDS011;683;48.738;9.226;2022-11-15T05:36:04;6.70;;;4.20;;
1378;SDS011;683;48.738;9.226;2022-11-15T05:38:56;8.83;;;6.00;;
1378;SDS011;683;48.738;9.226;2022-11-15T05:41:43;8.80;;;6.93;;
1378;SDS011;683;48.738;9.226;2022-11-15T05:44:32;7.33;;;6.63;;
1378;SDS011;683;48.738;9.226;2022-11-15T05:47:19;7.67;;;6.83;;
1378;SDS011;683;48.738;9.226;2022-11-15T05:50:11;8.10;;;7.03;;
1378;SDS011;683;48.738;9.226;2022-11-15T05:53:00;8.10;;;7.40;;
1378;SDS011;683;48.738;9.226;2022-11-15T05:55:49;7.47;;;6.77;;
1378;SDS011;683;48.738;9.226;2022-11-15T05:58:35;9.13;;;8.23;;
1378;SDS011;683;48.738;9.226;2022-11-15T06:01:22;8.07;;;6.60;;
1378;SDS011;683;48.738;9.226;2022-11-15T06:04:08;9.10;;;8.20;;
1378;SDS011;683;48.738;9.226;2022-11-15T06:06:54;9.53;;;8.00;;
1378;SDS011;683;48.738;9.226;2022-11-15T06:09:41;7.50;;;6.80;;
1378;SDS011;683;48.738;9.226;2022-11-15T06:12:29;9.27;;;7.93;;
1378;SDS011;683;48.738;9.226;2022-11-15T06:15:15;7.30;;;6.60;;
1378;SDS011;683;48.738;9.226;2022-11-15T06:18:01;9.13;;;7.47;;
1378;SDS011;683;48.738;9.226;2022-11-15T06:20:48;8.20;;;7.40;;
1378;SDS011;683;48.738;9.226;2022-11-15T06:23:34;7.30;;;6.60;;
1378;SDS011;683;48.738;9.226;2022-11-15T06:26:21;7.13;;;6.53;;
1378;SDS011;683;48.738;9.226;2022-11-15T06:29:09;9.17;;;6.63;;
1378;SDS011;683;48.738;9.226;2022-11-15T06:31:55;9.00;;;6.80;;
1378;SDS011;683;48.738;9.226;2022-11-15T06:34:42;7.20;;;6.47;;
1378;SDS011;683;48.738;9.226;2022-11-15T06:37:28;7.83;;;6.83;;
1378;SDS011;683;48.738;9.226;2022-11-15T06:40:15;9.20;;;7.43;;
1378;SDS011;683;48.738;9.226;2022-11-15T06:43:02;8.70;;;7.10;;
1378;SDS011;683;48.738;9.226;2022-11-15T06:45:50;6.93;;;6.37;;
1378;SDS011;683;48.738;9.226;2022-11-15T06:48:37;7.47;;;6.57;;
1378;SDS011;683;48.738;9.226;2022-11-15T06:51:23;9.40;;;6.60;;
1378;SDS011;683;48.738;9.226;2022-11-15T06:54:09;6.37;;;5.77;;
1378;SDS011;683;48.738;9.226;2022-11-15T06:56:55;7.17;;;6.20;;
1378;SDS011;683;48.738;9.226;2022-11-15T06:59:42;9.47;;;7.10;;
1378;SDS011;683;48.738;9.226;2022-11-15T07:02:30;8.03;;;6.50;;
1378;SDS011;683;48.738;9.226;2022-11-15T07:05:19;13.53;;;6.53;;
1378;SDS011;683;48.738;9.226;2022-11-15T07:08:06;9.67;;;7.23;;
1378;SDS011;683;48.738;9.226;2022-11-15T07:10:53;9.60;;;7.53;;
1378;SDS011;683;48.738;9.226;2022-11-15T07:13:39;7.53;;;6.83;;
1378;SDS011;683;48.738;9.226;2022-11-15T07:16:25;8.10;;;7.27;;
1378;SDS011;683;48.738;9.226;2022-11-15T07:19:13;8.00;;;6.33;;
1378;SDS011;683;48.738;9.226;2022-11-15T07:21:59;8.43;;;7.43;;
1378;SDS011;683;48.738;9.226;2022-11-15T07:24:46;8.27;;;6.83;;
1378;SDS011;683;48.738;9.226;2022-11-15T07:27:32;11.60;;;7.00;;
1378;SDS011;683;48.738;9.226;2022-11-15T07:30:18;7.13;;;6.40;;
1378;SDS011;683;48.738;9.226;2022-11-15T07:33:05;6.70;;;6.00;;
1378;SDS011;683;48.738;9.226;2022-11-15T07:35:53;7.33;;;6.60;;
1378;SDS011;683;48.738;9.226;2022-11-15T07:38:39;13.53;;;7.23;;
1378;SDS011;683;48.738;9.226;2022-11-15T07:41:25;65.10;;;40.80;;
1378;SDS011;683;48.738;9.226;2022-11-15T07:44:11;103.97;;;68.33;;
1378;SDS011;683;48.738;9.226;2022-11-15T07:46:58;63.30;;;49.17;;
1378;SDS011;683;48.738;9.226;2022-11-15T07:49:44;30.50;;;24.23;;
1378;SDS011;683;48.738;9.226;2022-11-15T07:52:32;15.40;;;11.50;;
1378;SDS011;683;48.738;9.226;2022-11-15T07:55:18;10.50;;;8.60;;
1378;SDS011;683;48.738;9.226;2022-11-15T07:58:05;9.23;;;6.97;;
1378;SDS011;683;48.738;9.226;2022-11-15T08:00:53;8.93;;;7.47;;
1378;SDS011;683;48.738;9.226;2022-11-15T08:03:40;5.33;;;4.70;;
1378;SDS011;683;48.738;9.226;2022-11-15T08:06:26;6.37;;;5.77;;
1378;SDS011;683;48.738;9.226;2022-11-15T08:09:14;13.93;;;6.20;;
1378;SDS011;683;48.738;9.226;2022-11-15T08:12:00;7.53;;;6.60;;
1378;SDS011;683;48.738;9.226;2022-11-15T08:14:47;6.60;;;6.00;;
1378;SDS011;683;48.738;9.226;2022-11-15T08:17:33;5.97;;;5.17;;
1378;SDS011;683;48.738;9.226;2022-11-15T08:20:19;8.27;;;4.83;;
1378;SDS011;683;48.738;9.226;2022-11-15T08:23:06;8.50;;;5.90;;
1378;SDS011;683;48.738;9.226;2022-11-15T08:26:00;6.90;;;6.20;;
1378;SDS011;683;48.738;9.226;2022-11-15T08:28:47;4.60;;;4.20;;
1378;SDS011;683;48.738;9.226;2022-11-15T08:31:33;7.40;;;4.70;;
1378;SDS011;683;48.738;9.226;2022-11-15T08:34:21;6.07;;;3.83;;
1378;SDS011;683;48.738;9.226;2022-11-15T08:37:08;6.67;;;5.20;;
1378;SDS011;683;48.738;9.226;2022-11-15T08:39:54;7.30;;;5.67;;
1378;SDS011;683;48.738;9.226;2022-11-15T08:42:42;5.80;;;5.20;;
1378;SDS011;683;48.738;9.226;2022-11-15T08:45:31;8.30;;;3.80;;
1378;SDS011;683;48.738;9.226;2022-11-15T08:48:19;7.77;;;3.90;;
1378;SDS011;683;48.738;9.226;2022-11-15T08:51:05;10.23;;;3.77;;
1378;SDS011;683;48.738;9.226;2022-11-15T08:53:51;14.87;;;4.10;;
1378;SDS011;683;48.738;9.226;2022-11-15T08:56:37;5.93;;;4.63;;
1378;SDS011;683;48.738;9.226;2022-11-15T08:59:25;4.90;;;4.20;;
1378;SDS011;683;48.738;9.226;2022-11-15T09:02:12;6.90;;;5.33;;
1378;SDS011;683;48.738;9.226;2022-11-15T09:04:59;4.90;;;4.50;;
1378;SDS011;683;48.738;9.226;2022-11-15T09:07:45;7.67;;;4.60;;
1378;SDS011;683;48.738;9.226;2022-11-15T09:10:32;5.13;;;4.50;;
1378;SDS011;683;48.738;9.226;2022-11-15T09:13:18;6.17;;;4.50;;
1378;SDS011;683;48.738;9.226;2022-11-15T09:16:06;5.27;;;4.83;;
1378;SDS011;683;48.738;9.226;2022-11-15T09:18:52;5.87;;;4.80;;
1378;SDS011;683;48.738;9.226;2022-11-15T09:21:39;4.27;;;3.87;;
1378;SDS011;683;48.738;9.226;2022-11-15T09:24:26;5.37;;;4.87;;
1378;SDS011;683;48.738;9.226;2022-11-15T09:27:12;4.47;;;4.07;;
1378;SDS011;683;48.738;9.226;2022-11-15T09:29:58;6.67;;;5.07;;
1378;SDS011;683;48.738;9.226;2022-11-15T09:32:46;9.67;;;5.17;;
1378;SDS011;683;48.738;9.226;2022-11-15T09:35:32;7.63;;;5.60;;
1378;SDS011;683;48.738;9.226;2022-11-15T09:38:19;7.33;;;5.30;;
1378;SDS011;683;48.738;9.226;2022-11-15T09:41:22;8.27;;;5.07;;
1378;SDS011;683;48.738;9.226;2022-11-15T09:44:34;6.23;;;4.80;;
1378;SDS011;683;48.738;9.226;2022-11-15T09:51:06;6.07;;;5.47;;
1378;SDS011;683;48.738;9.226;2022-11-15T09:53:41;7.97;;;5.03;;
1378;SDS011;683;48.738;9.226;2022-11-15T09:56:16;6.70;;;5.10;;
1378;SDS011;683;48.738;9.226;2022-11-15T09:58:50;7.73;;;4.60;;
1378;SDS011;683;48.738;9.226;2022-11-15T10:01:31;6.40;;;4.37;;
1378;SDS011;683;48.738;9.226;2022-11-15T10:04:06;4.83;;;4.33;;
1378;SDS011;683;48.738;9.226;2022-11-15T10:06:36;3.97;;;3.57;;
1378;SDS011;683;48.738;9.226;2022-11-15T10:09:12;7.00;;;4.33;;
1378;SDS011;683;48.738;9.226;2022-11-15T10:11:42;7.77;;;4.07;;
1378;SDS011;683;48.738;9.226;2022-11-15T10:14:11;5.03;;;4.30;;
1378;SDS011;683;48.738;9.226;2022-11-15T10:16:51;4.60;;;3.60;;
1378;SDS011;683;48.738;9.226;2022-11-15T10:19:46;4.77;;;4.27;;
1378;SDS011;683;48.738;9.226;2022-11-15T10:22:27;4.13;;;3.80;;
1378;SDS011;683;48.738;9.226;2022-11-15T10:25:03;5.60;;;3.33;;
1378;SDS011;683;48.738;9.226;2022-11-15T10:27:41;3.77;;;3.37;;
1378;SDS011;683;48.738;9.226;2022-11-15T10:30:13;4.97;;;3.90;;
1378;SDS011;683;48.738;9.226;2022-11-15T10:32:44;3.87;;;3.13;;
1378;SDS011;683;48.738;9.226;2022-11-15T10:35:17;5.60;;;3.53;;
1378;SDS011;683;48.738;9.226;2022-11-15T10:38:04;5.63;;;4.13;;
1378;SDS011;683;48.738;9.226;2022-11-15T10:40:33;4.87;;;4.23;;
1378;SDS011;683;48.738;9.226;2022-11-15T10:43:05;5.63;;;4.80;;
1378;SDS011;683;48.738;9.226;2022-11-15T10:45:40;5.00;;;3.80;;
1378;SDS011;683;48.738;9.226;2022-11-15T10:48:19;3.93;;;3.53;;
1378;SDS011;683;48.738;9.226;2022-11-15T10:50:49;4.57;;;4.17;;
1378;SDS011;683;48.738;9.226;2022-11-15T10:53:22;4.10;;;3.80;;
1378;SDS011;683;48.738;9.226;2022-11-15T10:55:55;5.80;;;3.63;;
1378;SDS011;683;48.738;9.226;2022-11-15T10:58:30;4.97;;;4.47;;
1378;SDS011;683;48.738;9.226;2022-11-15T11:03:57;5.00;;;4.50;;
1378;SDS011;683;48.738;9.226;2022-11-15T11:06:26;5.13;;;4.63;;
1378;SDS011;683;48.738;9.226;2022-11-15T11:08:56;6.37;;;5.40;;
1378;SDS011;683;48.738;9.226;2022-11-15T11:11:26;5.50;;;4.80;;
1378;SDS011;683;48.738;9.226;2022-11-15T11:14:12;7.07;;;4.50;;
1378;SDS011;683;48.738;9.226;2022-11-15T11:16:44;7.40;;;5.50;;
1378;SDS011;683;48.738;9.226;2022-11-15T11:19:20;5.83;;;4.73;;
1378;SDS011;683;48.738;9.226;2022-11-15T11:22:11;4.87;;;4.00;;
1378;SDS011;683;48.738;9.226;2022-11-15T11:24:47;5.57;;;5.03;;
1378;SDS011;683;48.738;9.226;2022-11-15T11:27:27;7.87;;;5.93;;
1378;SDS011;683;48.738;9.226;2022-11-15T11:30:09;7.00;;;5.23;;
1378;SDS011;683;48.738;9.226;2022-11-15T11:32:49;6.43;;;4.73;;
1378;SDS011;683;48.738;9.226;2022-11-15T11:35:34;7.20;;;5.40;;
1378;SDS011;683;48.738;9.226;2022-11-15T11:38:15;9.83;;;5.30;;
1378;SDS011;683;48.738;9.226;2022-11-15T11:40:54;7.10;;;5.30;;
1378;SDS011;683;48.738;9.226;2022-11-15T11:43:34;7.03;;;4.83;;
1378;SDS011;683;48.738;9.226;2022-11-15T11:46:14;6.43;;;5.37;;
1378;SDS011;683;48.738;9.226;2022-11-15T11:49:08;5.70;;;4.60;;
1378;SDS011;683;48.738;9.226;2022-11-15T11:51:38;6.73;;;6.07;;
1378;SDS011;683;48.738;9.226;2022-11-15T11:54:11;7.17;;;5.43;;
1378;SDS011;683;48.738;9.226;2022-11-15T11:56:44;6.93;;;5.40;;
1378;SDS011;683;48.738;9.226;2022-11-15T11:59:16;8.33;;;6.27;;
1378;SDS011;683;48.738;9.226;2022-11-15T12:01:48;8.27;;;5.77;;
1378;SDS011;683;48.738;9.226;2022-11-15T12:04:18;5.90;;;5.30;;
1378;SDS011;683;48.738;9.226;2022-11-15T12:06:48;7.03;;;6.10;;
1378;SDS011;683;48.738;9.226;2022-11-15T12:09:21;6.27;;;5.67;;
1378;SDS011;683;48.738;9.226;2022-11-15T12:12:00;7.60;;;6.20;;
1378;SDS011;683;48.738;9.226;2022-11-15T12:14:38;7.00;;;6.10;;
1378;SDS011;683;48.738;9.226;2022-11-15T12:17:10;6.50;;;5.90;;
1378;SDS011;683;48.738;9.226;2022-11-15T12:19:38;6.93;;;5.90;;
1378;SDS011;683;48.738;9.226;2022-11-15T12:22:10;6.37;;;5.77;;
1378;SDS011;683;48.738;9.226;2022-11-15T12:24:45;5.77;;;5.10;;
1378;SDS011;683;48.738;9.226;2022-11-15T12:27:19;6.30;;;5.27;;
1378;SDS011;683;48.738;9.226;2022-11-15T12:29:53;6.60;;;6.00;;
1378;SDS011;683;48.738;9.226;2022-11-15T12:32:25;7.40;;;6.30;;
1378;SDS011;683;48.738;9.226;2022-11-15T12:34:55;7.30;;;6.60;;
1378;SDS011;683;48.738;9.226;2022-11-15T12:40:32;7.80;;;5.60;;
1378;SDS011;683;48.738;9.226;2022-11-15T12:43:10;6.90;;;5.90;;
1378;SDS011;683;48.738;9.226;2022-11-15T12:46:04;7.57;;;5.83;;
1378;SDS011;683;48.738;9.226;2022-11-15T12:54:50;6.70;;;5.50;;
1378;SDS011;683;48.738;9.226;2022-11-15T12:57:37;6.60;;;5.97;;
1378;SDS011;683;48.738;9.226;2022-11-15T13:03:25;6.50;;;4.80;;
1378;SDS011;683;48.738;9.226;2022-11-15T13:05:57;5.97;;;5.37;;
1378;SDS011;683;48.738;9.226;2022-11-15T13:17:24;6.53;;;5.83;;
1378;SDS011;683;48.738;9.226;2022-11-15T13:19:58;8.40;;;5.50;;
1378;SDS011;683;48.738;9.226;2022-11-15T13:22:37;7.90;;;6.10;;
1378;SDS011;683;48.738;9.226;2022-11-15T13:25:27;6.73;;;5.30;;
1378;SDS011;683;48.738;9.226;2022-11-15T13:28:18;6.00;;;5.40;;
1378;SDS011;683;48.738;9.226;2022-11-15T13:30:50;6.20;;;5.63;;
1378;SDS011;683;48.738;9.226;2022-11-15T13:33:21;7.07;;;6.37;;
1378;SDS011;683;48.738;9.226;2022-11-15T13:35:51;6.73;;;5.87;;
1378;SDS011;683;48.738;9.226;2022-11-15T13:38:25;8.20;;;5.77;;
1378;SDS011;683;48.738;9.226;2022-11-15T13:40:55;7.87;;;6.00;;
1378;SDS011;683;48.738;9.226;2022-11-15T13:43:28;6.80;;;6.20;;
1378;SDS011;683;48.738;9.226;2022-11-15T13:46:05;9.17;;;5.93;;
1378;SDS011;683;48.738;9.226;2022-11-15T13:48:42;7.57;;;6.77;;
1378;SDS011;683;48.738;9.226;2022-11-15T13:51:14;8.53;;;7.20;;
1378;SDS011;683;48.738;9.226;2022-11-15T13:53:46;6.57;;;5.97;;
1378;SDS011;683;48.738;9.226;2022-11-15T13:56:17;8.43;;;7.10;;
1378;SDS011;683;48.738;9.226;2022-11-15T13:58:46;11.80;;;6.73;;
1378;SDS011;683;48.738;9.226;2022-11-15T14:01:15;8.90;;;6.40;;
1378;SDS011;683;48.738;9.226;2022-11-15T14:03:48;8.67;;;7.27;;
1378;SDS011;683;48.738;9.226;2022-11-15T14:06:19;7.43;;;6.83;;
1378;SDS011;683;48.738;9.226;2022-11-15T14:11:58;10.67;;;6.90;;
1378;SDS011;683;48.738;9.226;2022-11-15T14:14:27;7.07;;;6.37;;
1378;SDS011;683;48.738;9.226;2022-11-15T14:16:56;10.83;;;7.20;;
1378;SDS011;683;48.738;9.226;2022-11-15T14:19:39;8.23;;;6.93;;
1378;SDS011;683;48.738;9.226;2022-11-15T14:22:11;8.57;;;7.10;;
1378;SDS011;683;48.738;9.226;2022-11-15T14:24:43;7.47;;;6.33;;
1378;SDS011;683;48.738;9.226;2022-11-15T14:27:19;9.70;;;6.70;;
1378;SDS011;683;48.738;9.226;2022-11-15T14:29:49;8.83;;;6.40;;
1378;SDS011;683;48.738;9.226;2022-11-15T14:32:17;7.70;;;6.13;;
1378;SDS011;683;48.738;9.226;2022-11-15T14:34:49;8.33;;;7.00;;
1378;SDS011;683;48.738;9.226;2022-11-15T14:37:22;9.90;;;8.13;;
1378;SDS011;683;48.738;9.226;2022-11-15T14:39:51;7.90;;;7.10;;
1378;SDS011;683;48.738;9.226;2022-11-15T14:42:20;10.97;;;7.70;;
1378;SDS011;683;48.738;9.226;2022-11-15T14:44:49;8.10;;;6.50;;
1378;SDS011;683;48.738;9.226;2022-11-15T14:47:17;7.87;;;5.90;;
1378;SDS011;683;48.738;9.226;2022-11-15T14:49:45;6.53;;;5.37;;
1378;SDS011;683;48.738;9.226;2022-11-15T14:52:22;8.93;;;6.03;;
1378;SDS011;683;48.738;9.226;2022-11-15T14:54:53;10.13;;;6.80;;
1378;SDS011;683;48.738;9.226;2022-11-15T14:57:21;6.27;;;5.50;;
1378;SDS011;683;48.738;9.226;2022-11-15T14:59:49;10.27;;;6.20;;
1378;SDS011;683;48.738;9.226;2022-11-15T15:02:18;8.70;;;6.60;;
1378;SDS011;683;48.738;9.226;2022-11-15T15:07:38;9.80;;;6.70;;
1378;SDS011;683;48.738;9.226;2022-11-15T15:10:07;10.00;;;7.87;;
1378;SDS011;683;48.738;9.226;2022-11-15T15:12:36;10.43;;;6.40;;
1378;SDS011;683;48.738;9.226;2022-11-15T15:15:05;7.27;;;6.37;;
1378;SDS011;683;48.738;9.226;2022-11-15T15:17:38;12.33;;;7.40;;
1378;SDS011;683;48.738;9.226;2022-11-15T15:20:07;8.43;;;7.57;;
1378;SDS011;683;48.738;9.226;2022-11-15T15:22:35;8.67;;;7.57;;
1378;SDS011;683;48.738;9.226;2022-11-15T15:25:14;7.47;;;6.73;;
1378;SDS011;683;48.738;9.226;2022-11-15T15:27:48;7.83;;;7.13;;
1378;SDS011;683;48.738;9.226;2022-11-15T15:30:17;13.10;;;9.20;;
1378;SDS011;683;48.738;9.226;2022-11-15T15:32:45;8.47;;;7.40;;
1378;SDS011;683;48.738;9.226;2022-11-15T15:35:13;7.77;;;7.00;;
1378;SDS011;683;48.738;9.226;2022-11-15T15:37:42;8.40;;;7.53;;
1378;SDS011;683;48.738;9.226;2022-11-15T15:40:14;8.40;;;7.60;;
1378;SDS011;683;48.738;9.226;2022-11-15T15:42:43;9.50;;;8.53;;
1378;SDS011;683;48.738;9.226;2022-11-15T15:45:11;9.07;;;8.27;;
1378;SDS011;683;48.738;9.226;2022-11-15T15:47:40;12.53;;;8.87;;
1378;SDS011;683;48.738;9.226;2022-11-15T15:50:14;11.60;;;8.73;;
1378;SDS011;683;48.738;9.226;2022-11-15T15:52:47;9.10;;;8.20;;
1378;SDS011;683;48.738;9.226;2022-11-15T15:55:17;14.23;;;8.80;;
1378;SDS011;683;48.738;9.226;2022-11-15T15:57:46;9.47;;;8.47;;
1378;SDS011;683;48.738;9.226;2022-11-15T16:00:14;10.73;;;8.97;;
1378;SDS011;683;48.738;9.226;2022-11-15T16:02:43;10.50;;;9.33;;
1378;SDS011;683;48.738;9.226;2022-11-15T16:05:11;11.13;;;10.00;;
1378;SDS011;683;48.738;9.226;2022-11-15T16:07:40;12.63;;;8.60;;
1378;SDS011;683;48.738;9.226;2022-11-15T16:10:14;13.53;;;9.27;;
1378;SDS011;683;48.738;9.226;2022-11-15T16:12:50;9.67;;;8.37;;
1378;SDS011;683;48.738;9.226;2022-11-15T16:15:18;10.90;;;9.77;;
1378;SDS011;683;48.738;9.226;2022-11-15T16:17:48;9.60;;;8.30;;
1378;SDS011;683;48.738;9.226;2022-11-15T16:23:09;13.23;;;8.60;;
1378;SDS011;683;48.738;9.226;2022-11-15T16:25:40;9.53;;;8.53;;
1378;SDS011;683;48.738;9.226;2022-11-15T16:28:19;9.67;;;7.33;;
1378;SDS011;683;48.738;9.226;2022-11-15T16:30:48;7.83;;;7.07;;
1378;SDS011;683;48.738;9.226;2022-11-15T16:33:25;10.10;;;8.10;;
1378;SDS011;683;48.738;9.226;2022-11-15T16:35:53;11.37;;;9.37;;
1378;SDS011;683;48.738;9.226;2022-11-15T16:38:21;9.77;;;8.77;;
1378;SDS011;683;48.738;9.226;2022-11-15T16:40:51;10.27;;;9.23;;
1378;SDS011;683;48.738;9.226;2022-11-15T16:43:19;11.40;;;9.27;;
1378;SDS011;683;48.738;9.226;2022-11-15T16:45:47;11.67;;;8.03;;
1378;SDS011;683;48.738;9.226;2022-11-15T16:48:20;11.73;;;9.90;;
1378;SDS011;683;48.738;9.226;2022-11-15T16:50:50;10.60;;;8.73;;
1378;SDS011;683;48.738;9.226;2022-11-15T16:53:21;12.93;;;8.33;;
1378;SDS011;683;48.738;9.226;2022-11-15T16:55:51;9.53;;;8.03;;
1378;SDS011;683;48.738;9.226;2022-11-15T16:58:19;19.90;;;10.53;;
1378;SDS011;683;48.738;9.226;2022-11-15T17:00:49;10.30;;;7.80;;
1378;SDS011;683;48.738;9.226;2022-11-15T17:03:18;12.53;;;9.40;;
1378;SDS011;683;48.738;9.226;2022-11-15T17:05:46;9.70;;;7.90;;
1378;SDS011;683;48.738;9.226;2022-11-15T17:08:14;11.90;;;8.40;;
1378;SDS011;683;48.738;9.226;2022-11-15T17:10:45;13.80;;;9.43;;
1378;SDS011;683;48.738;9.226;2022-11-15T17:13:15;11.10;;;8.27;;
1378;SDS011;683;48.738;9.226;2022-11-15T17:15:44;10.90;;;8.60;;
1378;SDS011;683;48.738;9.226;2022-11-15T17:18:12;10.60;;;9.50;;
1378;SDS011;683;48.738;9.226;2022-11-15T17:20:41;10.27;;;8.87;;
1378;SDS011;683;48.738;9.226;2022-11-15T17:23:10;10.67;;;9.07;;
1378;SDS011;683;48.738;9.226;2022-11-15T17:25:40;10.70;;;7.60;;
1378;SDS011;683;48.738;9.226;2022-11-15T17:28:08;13.73;;;9.37;;
1378;SDS011;683;48.738;9.226;2022-11-15T17:30:41;10.63;;;8.47;;
1378;SDS011;683;48.738;9.226;2022-11-15T17:33:09;10.30;;;9.07;;
1378;SDS011;683;48.738;9.226;2022-11-15T17:35:37;10.43;;;9.10;;